Südanflug-Wetter

Südanflüge sind sowohl am Euroairport Basel-Mulhouse-Freiburg als auch am Flughafen Unique Zürich ein Thema für die Anwohner. In Basel hängen Südanflüge von den Windverhältnissen ab. Für den Euroairport Basel-Mulhouse-Freiburg bereitet MeteoNews deshalb aktuelle Winddaten auf, die direkt auf der Homepage des Flughafens eingebunden werden. Angaben zum Flughafen Zürich finden Sie hier.

In Zürich sind Südanflüge auf die Piste 34 möglich, wenn die horizontale Sichtweite mindestens 750 m beträgt und die Wolkenuntergrenze im Anflugsektor nicht tiefer als 300 Fuss (knapp 100 m) liegt (diese Werte gelten seit dem 1. November 2004).

Prognose für Südanflüge

Am Montag sind Südanflüge möglich.
(Prognose ohne Gewähr. Die Vorhersage wird mehrmals täglich aktualisiert. Verantwortlicher Meteorologe: Roger Perret, 22.04.2018 15:29)

Analyse der letzten METAR-Messungen

Unser Tool wertet die letzten 20 offiziellen Wettermeldungen (METAR) des Flughafens Zürich aus und entscheidet aufgrund der beiden Werte für Sichtweite und Ceiling (Hauptwolkenuntergrenze), ob Südanflüge nach obiger Definition möglich wären. Allerdings repräsentiert der Wert für die Wolkenuntergrenze in der METAR-Meldung nicht die Bewölkung im Anflugsektor sondern generell um den Flughafen. Da über die Bewölkung im Anflugsektor kurzfristig aufgrund von Beobachtungen des Towers und von Piloten entschieden wird, kann die Angabe unseres Tools in gewissen Fällen von den realen Entscheiden der Flugsicherung abweichen.

Südanflüge Datum Uhrzeit Sichtweite Ceiling Vollständige METAR-Meldung
möglich 2018-04-22 18:50:00 > 10 km LSZH 221650Z 25004KT CAVOK 25/08 Q1015 NOSIG
möglich 2018-04-22 18:20:00 > 10 km LSZH 221620Z VRB02KT CAVOK 26/05 Q1015 NOSIG
möglich 2018-04-22 17:50:00 > 10 km LSZH 221550Z 25008KT 230V290 9999 FEW075 26/08 Q1015 NOSIG
möglich 2018-04-22 17:20:00 > 10 km LSZH 221520Z 22004KT 160V260 9999 FEW075 27/05 Q1015 NOSIG
möglich 2018-04-22 16:50:00 > 10 km LSZH 221450Z 23005KT 170V290 9999 FEW075 27/08 Q1015 NOSIG
möglich 2018-04-22 16:20:00 > 10 km LSZH 221420Z 25007KT 190V310 9999 FEW075 26/07 Q1015 NOSIG
möglich 2018-04-22 15:50:00 > 10 km LSZH 221350Z 27006KT 240V300 9999 FEW070 26/09 Q1016 NOSIG
möglich 2018-04-22 15:20:00 > 10 km LSZH 221320Z 26004KT 180V320 9999 FEW070 26/10 Q1016 NOSIG
möglich 2018-04-22 14:50:00 > 10 km LSZH 221250Z 24004KT 210V290 CAVOK 26/10 Q1016 NOSIG
möglich 2018-04-22 14:20:00 > 10 km LSZH 221220Z 26006KT 200V310 CAVOK 26/08 Q1016 NOSIG
möglich 2018-04-22 13:50:00 > 10 km LSZH 221150Z VRB05KT CAVOK 25/08 Q1017 NOSIG
möglich 2018-04-22 13:20:00 > 10 km LSZH 221120Z 24005KT 190V300 CAVOK 24/08 Q1017 NOSIG
möglich 2018-04-22 12:50:00 > 10 km LSZH 221050Z 26006KT 170V300 CAVOK 24/08 Q1017 NOSIG
möglich 2018-04-22 12:20:00 > 10 km LSZH 221020Z 24006KT 210V270 9999 FEW060 BKN350 23/08 Q1018 NOSIG
möglich 2018-04-22 11:50:00 > 10 km LSZH 220950Z 25006KT 200V270 9999 FEW050 BKN350 23/09 Q1018 NOSIG
möglich 2018-04-22 11:20:00 > 10 km LSZH 220920Z 22006KT CAVOK 22/09 Q1018 NOSIG
möglich 2018-04-22 10:50:00 > 10 km LSZH 220850Z 24006KT CAVOK 21/08 Q1018 NOSIG
möglich 2018-04-22 10:20:00 > 10 km LSZH 220820Z 16005KT 130V220 CAVOK 20/09 Q1018 NOSIG
möglich 2018-04-22 09:50:00 > 10 km LSZH 220750Z 14004KT 9999 FEW045 18/08 Q1018 NOSIG
möglich 2018-04-22 09:20:00 > 10 km LSZH 220720Z 13005KT 9999 FEW045 17/08 Q1018 NOSIG